Current Conditions
Clear
Conditions



Pressure
29.63 (inHG) - 1003.42 (mb)
Visibility

10.0 (mimiles) - 16.1 (km)
   Temperature
61  °F
16°C
39  °F
Dewpoint
45  %
 Humidity
   Wind Speed
9  mph
8  kts
14  km/h
4.0  m/s
   Wind Direction
 10°
Due North
   Airport Data
KAVP
Location Wilkes-Barre / Scranton International 10 mi (16.09 km)
Metar :KAVP 082354Z 01008KT 10SM CLR 16/04 A2963 RMK AO2 SLP030 T01560039 10189 20139 53017
Wed 8th April 19:54 pm
   Raw Metar Info
Raw METAR is the most common format in the world for the transmission of observational weather data. It is highly standardized through the International Civil Aviation Organization (ICAO), which allows it to be understood throughout most of the world.
   API Info
Data Provided by
https://www.checkwx.com/weather/KAVP
   © Info
CSS/SVG/PHP scripts were developed by weather34.com for use in the weather34 template © 2015-2020

Guide Info provided by Metar-Wikipedia